Odonnell, Texas
Current Conditions -  °F | °C
As of 3:53 AM on Thursday 25 Dec 2014 (Local Time) from KLBB Reporting Station
Overcast Overcast  
Wind Chill: 28°   Ceiling: 24000
Heat Index: 35°   Visibility: 10mi
Dew Point: 23°   Wind: 9mph
Humidity: 61%   Direction: 260°W
Pressure: 29.76"   Gusts: NA
Location:  32.98°N, 101.89°W
Report Text: KLBB 250953Z 26008KT 10SM FEW220 BKN240 OVC260 02/M05 A2976 RMK AO2 SLP070 T00171050
Loading
Personal Weather Stations






























Interactive Weather Map New forecast layout! Learn more

10-Day Weather Forecast

Advertisements
Track Severe Weather on mobile